Time;durP1;ratioP1;P1;durP2;ratioP2;P2;SDS_P1;SDS_P2;PMS_P1;PMS_P2;Temp;Humidity;BMP_temperature;BMP_pressure;BME280_temperature;BME280_humidity;BME280_pressure;Samples;Min_cycle;Max_cycle;Signal;HPM_P1;HPM_P2
2022/03/06 00:00:55;;;;;;;;;76.80;64.40;;;;;;;;5018765;28;8759;-68
2022/03/06 00:03:22;;;;;;;;;83.20;73.80;;;;;;;;5017522;28;8779;-67
2022/03/06 00:05:49;;;;;;;;;83.80;72.40;;;;;;;;5018295;28;9474;-68
2022/03/06 00:08:16;;;;;;;;;67.00;50.40;;;;;;;;5018237;28;8790;-68
2022/03/06 00:10:42;;;;;;;;;80.80;69.40;;;;;;;;5017823;28;8770;-68
2022/03/06 00:13:09;;;;;;;;;79.20;71.80;;;;;;;;5019061;28;8775;-68
2022/03/06 00:15:36;;;;;;;;;76.00;64.60;;;;;;;;5017960;28;8877;-68
2022/03/06 00:18:02;;;;;;;;;77.80;65.80;;;;;;;;5017000;28;8817;-68
2022/03/06 00:20:29;;;;;;;;;75.20;62.00;;;;;;;;5016648;28;8810;-68
2022/03/06 00:22:56;;;;;;;;;76.20;62.60;;;;;;;;5018146;28;9177;-68
2022/03/06 00:25:23;;;;;;;;;78.40;67.20;;;;;;;;5018281;28;8739;-67
2022/03/06 00:27:49;;;;;;;;;78.40;69.20;;;;;;;;5016251;28;8810;-68
2022/03/06 00:30:16;;;;;;;;;84.20;73.60;;;;;;;;5018118;28;8777;-68
2022/03/06 00:32:43;;;;;;;;;91.20;77.60;;;;;;;;5017699;28;8848;-68
2022/03/06 00:35:10;;;;;;;;;104.40;88.20;;;;;;;;5018157;28;8885;-68
2022/03/06 00:37:36;;;;;;;;;111.40;97.40;;;;;;;;5017489;28;8766;-67
2022/03/06 00:40:04;;;;;;;;;115.60;101.20;;;;;;;;5016886;28;8763;-68
2022/03/06 00:42:31;;;;;;;;;118.40;103.40;;;;;;;;5017359;28;8763;-68
2022/03/06 00:44:58;;;;;;;;;127.40;121.80;;;;;;;;5017580;28;8809;-68
2022/03/06 00:47:24;;;;;;;;;151.50;131.00;;;;;;;;5017400;28;8759;-68
2022/03/06 00:49:53;;;;;;;;;127.60;110.40;;;;;;;;5016521;28;8797;-68
2022/03/06 00:52:20;;;;;;;;;122.00;108.60;;;;;;;;5016245;28;8767;-67
2022/03/06 00:54:47;;;;;;;;;118.20;108.80;;;;;;;;5016995;28;8759;-67
2022/03/06 00:57:13;;;;;;;;;113.20;103.80;;;;;;;;5019927;28;9426;-68
2022/03/06 00:59:40;;;;;;;;;120.20;107.40;;;;;;;;4997647;28;8777;-68
2022/03/06 01:02:07;;;;;;;;;114.20;100.80;;;;;;;;4997850;28;8757;-67
2022/03/06 01:04:34;;;;;;;;;115.00;106.40;;;;;;;;4997018;28;8750;-67
2022/03/06 01:07:01;;;;;;;;;113.80;102.40;;;;;;;;4998144;28;8776;-68
2022/03/06 01:09:28;;;;;;;;;109.80;99.40;;;;;;;;5000047;28;8734;-69
2022/03/06 01:11:55;;;;;;;;;102.60;93.60;;;;;;;;5006593;28;8920;-68
2022/03/06 01:14:22;;;;;;;;;97.60;83.20;;;;;;;;5017106;28;8739;-68
2022/03/06 01:16:49;;;;;;;;;95.20;88.20;;;;;;;;5017128;28;8751;-68
2022/03/06 01:19:15;;;;;;;;;89.00;80.80;;;;;;;;5019174;28;8747;-68
2022/03/06 01:21:42;;;;;;;;;89.80;78.60;;;;;;;;5016993;28;8735;-68
2022/03/06 01:24:09;;;;;;;;;97.40;84.40;;;;;;;;5016871;28;8735;-67
2022/03/06 01:26:35;;;;;;;;;87.60;82.00;;;;;;;;5015135;28;8825;-68
2022/03/06 01:29:02;;;;;;;;;101.00;85.80;;;;;;;;5016804;28;8813;-68
2022/03/06 01:31:29;;;;;;;;;84.60;74.20;;;;;;;;5031753;28;8825;-67
2022/03/06 01:33:56;;;;;;;;;86.40;76.40;;;;;;;;5017576;28;8767;-67
2022/03/06 01:36:22;;;;;;;;;82.20;73.00;;;;;;;;5015286;28;8754;-67
2022/03/06 01:38:49;;;;;;;;;90.60;82.40;;;;;;;;5016727;28;8798;-68
2022/03/06 01:41:17;;;;;;;;;79.80;73.00;;;;;;;;5017031;28;8782;-68
2022/03/06 01:43:44;;;;;;;;;82.60;72.60;;;;;;;;5016586;28;8791;-67
2022/03/06 01:46:10;;;;;;;;;80.40;70.20;;;;;;;;5016250;28;8775;-68
2022/03/06 01:48:37;;;;;;;;;83.20;76.20;;;;;;;;5016508;28;8806;-68
2022/03/06 01:51:04;;;;;;;;;84.00;71.60;;;;;;;;5016624;28;8787;-67
2022/03/06 01:53:31;;;;;;;;;80.20;71.60;;;;;;;;5016664;28;9495;-67
2022/03/06 01:55:57;;;;;;;;;82.80;70.40;;;;;;;;5015529;28;8763;-67
2022/03/06 01:58:24;;;;;;;;;79.60;62.80;;;;;;;;5016776;28;8805;-67
2022/03/06 02:00:51;;;;;;;;;74.40;60.60;;;;;;;;5017003;28;8743;-68
2022/03/06 02:03:18;;;;;;;;;73.40;61.80;;;;;;;;5031666;28;8791;-67
2022/03/06 02:05:45;;;;;;;;;74.80;60.40;;;;;;;;5016601;28;8890;-68
2022/03/06 02:08:12;;;;;;;;;74.20;58.40;;;;;;;;5016583;28;8880;-68
2022/03/06 02:10:38;;;;;;;;;73.40;59.00;;;;;;;;5016088;28;8817;-67
2022/03/06 02:13:05;;;;;;;;;73.40;57.60;;;;;;;;5016393;28;8747;-68
2022/03/06 02:15:32;;;;;;;;;77.00;64.00;;;;;;;;5030999;28;8786;-67
2022/03/06 02:17:59;;;;;;;;;75.20;58.20;;;;;;;;5016208;28;8779;-68
2022/03/06 02:20:26;;;;;;;;;76.20;61.80;;;;;;;;5015987;28;8786;-67
2022/03/06 02:22:54;;;;;;;;;77.40;63.60;;;;;;;;5016314;28;9371;-68
2022/03/06 02:25:21;;;;;;;;;73.80;57.20;;;;;;;;5017981;28;8881;-67
2022/03/06 02:27:48;;;;;;;;;76.60;67.20;;;;;;;;5019777;28;8755;-67
2022/03/06 02:30:16;;;;;;;;;73.80;59.20;;;;;;;;5019146;28;8786;-68
2022/03/06 02:32:44;;;;;;;;;76.80;63.80;;;;;;;;5020115;28;8791;-68
2022/03/06 02:35:11;;;;;;;;;73.00;62.20;;;;;;;;5035277;28;8763;-68
2022/03/06 02:37:37;;;;;;;;;74.80;59.40;;;;;;;;5019635;28;8763;-67
2022/03/06 02:40:05;;;;;;;;;71.60;57.80;;;;;;;;5020212;28;8720;-68
2022/03/06 02:42:32;;;;;;;;;73.80;61.00;;;;;;;;5035363;28;8759;-68
2022/03/06 02:44:59;;;;;;;;;70.80;55.80;;;;;;;;5020267;28;8766;-67
2022/03/06 02:47:27;;;;;;;;;76.20;63.00;;;;;;;;5019696;28;8771;-67
2022/03/06 02:49:53;;;;;;;;;67.20;55.20;;;;;;;;5019495;28;8794;-68
2022/03/06 02:52:21;;;;;;;;;72.20;55.40;;;;;;;;5019776;28;8771;-67
2022/03/06 02:54:47;;;;;;;;;76.40;62.60;;;;;;;;5019178;28;8767;-67
2022/03/06 02:57:14;;;;;;;;;73.40;59.60;;;;;;;;5018141;28;8734;-67
2022/03/06 02:59:41;;;;;;;;;74.60;61.00;;;;;;;;5018139;28;9467;-67
2022/03/06 03:02:08;;;;;;;;;72.00;56.60;;;;;;;;5019697;28;8762;-67
2022/03/06 03:04:36;;;;;;;;;71.20;57.80;;;;;;;;5018003;28;8857;-67
2022/03/06 03:07:03;;;;;;;;;75.00;64.60;;;;;;;;5020119;28;8743;-68
2022/03/06 03:09:30;;;;;;;;;67.20;53.20;;;;;;;;5018914;28;8746;-67
2022/03/06 03:11:56;;;;;;;;;68.20;55.00;;;;;;;;5034405;28;8773;-68
2022/03/06 03:14:23;;;;;;;;;67.60;52.00;;;;;;;;5019291;28;8758;-67
2022/03/06 03:16:50;;;;;;;;;70.80;57.00;;;;;;;;5019486;28;8759;-68
2022/03/06 03:19:17;;;;;;;;;72.00;55.80;;;;;;;;5018272;28;8809;-67
2022/03/06 03:21:45;;;;;;;;;74.80;60.60;;;;;;;;5017905;28;8727;-67
2022/03/06 03:24:11;;;;;;;;;69.20;55.40;;;;;;;;5018684;28;8817;-68
2022/03/06 03:26:38;;;;;;;;;68.60;54.00;;;;;;;;5026420;28;8789;-68
2022/03/06 03:29:05;;;;;;;;;70.20;54.80;;;;;;;;4999597;28;8778;-67
2022/03/06 03:31:31;;;;;;;;;73.00;61.60;;;;;;;;4997994;28;8753;-67
2022/03/06 03:33:58;;;;;;;;;70.00;57.60;;;;;;;;4998721;28;8762;-67
2022/03/06 03:36:25;;;;;;;;;71.60;56.00;;;;;;;;4998345;28;8800;-66
2022/03/06 03:38:52;;;;;;;;;65.00;50.00;;;;;;;;4999553;28;8911;-67
2022/03/06 03:41:18;;;;;;;;;69.80;56.80;;;;;;;;5003491;28;8783;-67
2022/03/06 03:43:45;;;;;;;;;73.00;58.80;;;;;;;;5018541;28;8839;-67
2022/03/06 03:46:12;;;;;;;;;69.60;56.60;;;;;;;;5034375;28;8763;-67
2022/03/06 03:48:39;;;;;;;;;67.60;52.00;;;;;;;;5018561;28;9725;-67
2022/03/06 03:51:05;;;;;;;;;63.40;50.20;;;;;;;;5018690;28;8754;-67
2022/03/06 03:53:32;;;;;;;;;66.60;51.80;;;;;;;;5017660;28;8791;-67
2022/03/06 03:55:59;;;;;;;;;72.40;56.00;;;;;;;;5017920;28;8893;-67
2022/03/06 03:58:26;;;;;;;;;70.60;54.20;;;;;;;;5033079;28;8766;-67
2022/03/06 04:00:56;;;;;;;;;69.80;54.60;;;;;;;;5019269;28;8751;-68
2022/03/06 04:03:22;;;;;;;;;73.60;58.80;;;;;;;;5018385;28;8735;-67
2022/03/06 04:05:49;;;;;;;;;69.60;55.60;;;;;;;;5019102;28;8913;-67
2022/03/06 04:08:16;;;;;;;;;72.60;55.80;;;;;;;;5018525;28;8795;-67
2022/03/06 04:10:43;;;;;;;;;63.20;50.60;;;;;;;;5018010;28;8747;-67
2022/03/06 04:13:09;;;;;;;;;69.80;54.20;;;;;;;;4999481;28;8765;-67
2022/03/06 04:15:36;;;;;;;;;70.20;53.80;;;;;;;;4998289;28;8792;-67
2022/03/06 04:18:03;;;;;;;;;64.80;51.40;;;;;;;;4998481;28;8742;-67
2022/03/06 04:20:30;;;;;;;;;70.40;54.00;;;;;;;;4998178;28;8827;-67
2022/03/06 04:22:57;;;;;;;;;69.40;55.40;;;;;;;;4998666;28;8766;-67
2022/03/06 04:25:24;;;;;;;;;71.20;56.40;;;;;;;;5014035;28;8773;-67
2022/03/06 04:27:51;;;;;;;;;71.80;55.40;;;;;;;;5015634;28;8755;-67
2022/03/06 04:30:17;;;;;;;;;72.00;56.40;;;;;;;;5017622;28;8833;-67
2022/03/06 04:32:44;;;;;;;;;70.00;54.20;;;;;;;;5033029;28;8739;-67
2022/03/06 04:35:11;;;;;;;;;67.60;54.40;;;;;;;;5017924;28;8909;-67
2022/03/06 04:37:38;;;;;;;;;66.80;52.20;;;;;;;;5017375;28;8817;-67
2022/03/06 04:40:05;;;;;;;;;68.60;54.40;;;;;;;;5018334;28;8845;-67
2022/03/06 04:42:31;;;;;;;;;71.00;56.60;;;;;;;;5017590;28;9914;-67
2022/03/06 04:44:58;;;;;;;;;66.80;52.40;;;;;;;;5017576;28;8837;-67
2022/03/06 04:47:25;;;;;;;;;71.80;55.40;;;;;;;;5016985;28;8758;-67
2022/03/06 04:49:51;;;;;;;;;67.00;53.00;;;;;;;;5032496;28;8755;-67
2022/03/06 04:52:18;;;;;;;;;60.60;46.80;;;;;;;;5017774;28;9412;-67
2022/03/06 04:54:45;;;;;;;;;64.60;51.20;;;;;;;;5016671;28;8818;-67
2022/03/06 04:57:11;;;;;;;;;59.40;47.00;;;;;;;;5017469;28;8772;-67
2022/03/06 04:59:38;;;;;;;;;68.60;54.80;;;;;;;;5032470;28;9209;-67
2022/03/06 05:02:05;;;;;;;;;70.00;55.00;;;;;;;;5016102;28;8747;-67
2022/03/06 05:04:35;;;;;;;;;70.60;57.80;;;;;;;;5015818;28;8695;-67
2022/03/06 05:07:01;;;;;;;;;68.60;52.20;;;;;;;;5016339;28;8759;-67
2022/03/06 05:09:28;;;;;;;;;68.40;55.40;;;;;;;;5017143;28;8731;-67
2022/03/06 05:11:55;;;;;;;;;65.80;51.40;;;;;;;;5017018;28;8746;-67
2022/03/06 05:14:21;;;;;;;;;64.40;50.40;;;;;;;;5016644;28;8786;-67
2022/03/06 05:16:48;;;;;;;;;60.00;48.20;;;;;;;;5017417;28;8763;-67
2022/03/06 05:19:15;;;;;;;;;65.40;50.40;;;;;;;;5016582;28;8824;-67
2022/03/06 05:21:42;;;;;;;;;65.40;50.80;;;;;;;;5017281;28;8799;-66
2022/03/06 05:24:08;;;;;;;;;66.40;51.80;;;;;;;;5017311;28;9937;-66
2022/03/06 05:26:35;;;;;;;;;62.20;48.40;;;;;;;;5024712;28;8789;-66
2022/03/06 05:29:02;;;;;;;;;62.60;51.00;;;;;;;;4997432;28;8797;-67
2022/03/06 05:31:28;;;;;;;;;59.40;47.80;;;;;;;;4997615;28;8860;-67
2022/03/06 05:33:55;;;;;;;;;63.40;50.60;;;;;;;;4998106;28;8750;-67
2022/03/06 05:36:22;;;;;;;;;58.00;46.00;;;;;;;;4997877;28;8754;-66
2022/03/06 05:38:52;;;;;;;;;60.00;46.40;;;;;;;;4998228;28;8768;-67
2022/03/06 05:41:19;;;;;;;;;62.60;49.40;;;;;;;;5000943;28;8848;-66
2022/03/06 05:43:46;;;;;;;;;63.20;49.00;;;;;;;;5017526;28;8775;-67
2022/03/06 05:46:12;;;;;;;;;66.00;50.75;;;;;;;;5017528;28;8755;-67
2022/03/06 05:48:39;;;;;;;;;49.40;40.60;;;;;;;;5016887;28;8814;-67
2022/03/06 05:51:06;;;;;;;;;62.00;49.40;;;;;;;;5017255;28;8781;-67
2022/03/06 05:53:33;;;;;;;;;62.60;48.40;;;;;;;;5031747;28;8775;-67
2022/03/06 05:56:00;;;;;;;;;60.80;48.20;;;;;;;;5016938;28;8766;-67
2022/03/06 05:58:26;;;;;;;;;61.00;46.00;;;;;;;;5015223;28;8751;-66
2022/03/06 06:00:53;;;;;;;;;60.60;45.60;;;;;;;;5019370;28;8755;-67
2022/03/06 06:03:20;;;;;;;;;60.60;47.60;;;;;;;;5020419;28;8905;-67
2022/03/06 06:05:46;;;;;;;;;55.80;45.20;;;;;;;;5020736;28;8809;-67
2022/03/06 06:08:13;;;;;;;;;56.40;45.60;;;;;;;;5020519;28;8790;-67
2022/03/06 06:10:40;;;;;;;;;58.80;46.60;;;;;;;;5020349;28;8820;-67
2022/03/06 06:13:09;;;;;;;;;56.60;45.20;;;;;;;;5035991;28;8739;-67
2022/03/06 06:15:37;;;;;;;;;56.00;44.00;;;;;;;;5020209;28;8829;-67
2022/03/06 06:18:06;;;;;;;;;60.60;46.00;;;;;;;;5035475;28;8743;-67
2022/03/06 06:20:33;;;;;;;;;60.40;46.80;;;;;;;;5020364;28;9501;-67
2022/03/06 06:23:00;;;;;;;;;53.40;43.20;;;;;;;;5020159;28;8763;-67
2022/03/06 06:25:27;;;;;;;;;60.00;47.00;;;;;;;;5019952;28;8769;-66
2022/03/06 06:27:53;;;;;;;;;57.40;44.20;;;;;;;;5018984;28;8829;-66
2022/03/06 06:30:20;;;;;;;;;58.80;46.40;;;;;;;;5019739;28;8787;-66
2022/03/06 06:32:47;;;;;;;;;57.20;44.00;;;;;;;;5018619;28;9531;-67
2022/03/06 06:35:17;;;;;;;;;54.00;43.60;;;;;;;;5018587;28;8785;-67
2022/03/06 06:37:43;;;;;;;;;58.20;47.40;;;;;;;;5019967;28;8797;-67
2022/03/06 06:40:10;;;;;;;;;55.40;44.20;;;;;;;;5020253;28;8771;-67
2022/03/06 06:42:37;;;;;;;;;58.80;47.20;;;;;;;;5017918;28;8767;-67
2022/03/06 06:45:04;;;;;;;;;50.80;41.60;;;;;;;;5019637;28;8735;-67
2022/03/06 06:47:31;;;;;;;;;49.80;41.00;;;;;;;;5019586;28;8767;-67
2022/03/06 06:49:57;;;;;;;;;59.25;47.50;;;;;;;;5020081;28;8774;-66
2022/03/06 06:52:24;;;;;;;;;54.00;44.00;;;;;;;;5035221;28;8727;-67
2022/03/06 06:54:51;;;;;;;;;56.40;46.20;;;;;;;;5034388;28;8787;-67
2022/03/06 06:57:17;;;;;;;;;56.00;44.20;;;;;;;;5025339;28;8759;-65
2022/03/06 06:59:44;;;;;;;;;51.00;41.75;;;;;;;;5019709;28;8773;-67
2022/03/06 07:02:11;;;;;;;;;53.40;42.60;;;;;;;;5019621;28;8730;-67
2022/03/06 07:04:38;;;;;;;;;53.50;43.50;;;;;;;;5019101;28;8872;-66
2022/03/06 07:07:05;;;;;;;;;53.50;42.50;;;;;;;;5020293;28;8786;-66
2022/03/06 07:09:31;;;;;;;;;55.00;42.75;;;;;;;;5019256;28;8897;-67
2022/03/06 07:11:58;;;;;;;;;50.00;40.50;;;;;;;;5019004;28;8856;-66
2022/03/06 07:14:25;;;;;;;;;49.75;40.50;;;;;;;;5019074;28;8786;-67
2022/03/06 07:16:51;;;;;;;;;45.33;37.67;;;;;;;;5019362;28;8786;-66
2022/03/06 07:19:18;;;;;;;;;49.25;39.25;;;;;;;;5020018;28;9445;-66
2022/03/06 07:21:48;;;;;;;;;47.50;39.00;;;;;;;;5019129;28;8785;-67
2022/03/06 07:24:14;;;;;;;;;47.25;37.00;;;;;;;;5017969;28;8899;-67
2022/03/06 07:26:41;;;;;;;;;49.25;40.50;;;;;;;;5018627;28;8791;-67
2022/03/06 07:29:08;;;;;;;;;50.25;39.25;;;;;;;;5033974;28;8778;-67
2022/03/06 07:31:35;;;;;;;;;45.50;38.50;;;;;;;;5017228;28;8771;-66
2022/03/06 07:34:01;;;;;;;;;47.75;37.75;;;;;;;;5019317;28;8766;-67
2022/03/06 07:36:28;;;;;;;;;50.25;42.75;;;;;;;;5018283;28;8779;-67
2022/03/06 07:38:55;;;;;;;;;50.75;42.75;;;;;;;;5018869;28;8808;-67
2022/03/06 07:41:22;;;;;;;;;50.50;41.50;;;;;;;;5018739;28;8887;-67
2022/03/06 07:43:48;;;;;;;;;47.50;39.25;;;;;;;;5017304;28;8894;-67
2022/03/06 07:46:15;;;;;;;;;46.00;38.00;;;;;;;;5017663;28;8777;-67
2022/03/06 07:48:42;;;;;;;;;50.50;40.50;;;;;;;;5018547;28;8759;-67
2022/03/06 07:51:08;;;;;;;;;49.25;38.75;;;;;;;;5018983;28;9432;-67
2022/03/06 07:53:35;;;;;;;;;47.25;40.00;;;;;;;;5018216;28;8827;-66
2022/03/06 07:56:02;;;;;;;;;46.00;37.75;;;;;;;;5018361;28;9252;-67
2022/03/06 07:58:29;;;;;;;;;47.75;39.00;;;;;;;;5017156;28;8870;-67
2022/03/06 08:00:55;;;;;;;;;45.25;37.75;;;;;;;;5019080;28;9423;-67
2022/03/06 08:03:22;;;;;;;;;45.00;36.75;;;;;;;;5018155;28;8800;-66
2022/03/06 08:05:49;;;;;;;;;43.50;36.00;;;;;;;;5018465;28;8771;-67
2022/03/06 08:08:15;;;;;;;;;30.75;28.25;;;;;;;;5018176;28;8896;-67
2022/03/06 08:10:42;;;;;;;;;46.00;38.50;;;;;;;;5016973;28;8766;-67
2022/03/06 08:13:09;;;;;;;;;33.50;30.50;;;;;;;;5018806;28;8754;-67
2022/03/06 08:15:36;;;;;;;;;35.00;31.25;;;;;;;;5018148;28;8817;-67
2022/03/06 08:18:03;;;;;;;;;41.75;33.75;;;;;;;;5018362;28;9414;-67
2022/03/06 08:20:30;;;;;;;;;32.50;29.25;;;;;;;;5017737;28;8885;-67
2022/03/06 08:22:56;;;;;;;;;34.25;30.25;;;;;;;;5017548;28;9740;-67
2022/03/06 08:25:23;;;;;;;;;32.00;29.00;;;;;;;;5018554;28;8739;-66
2022/03/06 08:27:50;;;;;;;;;37.50;31.00;;;;;;;;5018010;28;8767;-67
2022/03/06 08:30:16;;;;;;;;;32.75;30.25;;;;;;;;5018059;28;9002;-67
2022/03/06 08:32:43;;;;;;;;;36.75;30.25;;;;;;;;5017988;28;8766;-67
2022/03/06 08:35:10;;;;;;;;;33.75;30.25;;;;;;;;5017868;28;8838;-67
2022/03/06 08:37:37;;;;;;;;;31.00;30.25;;;;;;;;5017801;28;8813;-67
2022/03/06 08:40:04;;;;;;;;;37.75;31.50;;;;;;;;5033173;28;8813;-67
2022/03/06 08:42:31;;;;;;;;;40.25;32.00;;;;;;;;5015916;28;8739;-67
2022/03/06 08:44:57;;;;;;;;;39.75;31.00;;;;;;;;5017530;28;8759;-67
2022/03/06 08:47:24;;;;;;;;;38.00;32.00;;;;;;;;5017422;28;8723;-67
2022/03/06 08:49:51;;;;;;;;;43.75;35.75;;;;;;;;5017243;28;8841;-67
2022/03/06 08:52:18;;;;;;;;;41.50;33.50;;;;;;;;5018214;28;8758;-66
2022/03/06 08:54:44;;;;;;;;;39.25;31.50;;;;;;;;5017079;28;8802;-67
2022/03/06 08:57:11;;;;;;;;;35.75;32.25;;;;;;;;5017897;28;8786;-67
2022/03/06 08:59:38;;;;;;;;;36.00;32.50;;;;;;;;5017201;28;8807;-66
2022/03/06 09:02:04;;;;;;;;;40.25;33.75;;;;;;;;5017539;28;8763;-67
2022/03/06 09:04:33;;;;;;;;;39.50;32.75;;;;;;;;5017360;28;8790;-66
2022/03/06 09:07:00;;;;;;;;;39.25;32.25;;;;;;;;5017871;28;8798;-66
2022/03/06 09:09:27;;;;;;;;;36.50;32.00;;;;;;;;5017545;28;9885;-66
2022/03/06 09:11:53;;;;;;;;;39.25;31.00;;;;;;;;5016324;28;8767;-67
2022/03/06 09:14:20;;;;;;;;;34.75;30.50;;;;;;;;5016717;28;8891;-67
2022/03/06 09:16:47;;;;;;;;;43.00;34.00;;;;;;;;5017219;28;8773;-67
2022/03/06 09:19:13;;;;;;;;;34.25;30.25;;;;;;;;5032829;28;8759;-67
2022/03/06 09:21:43;;;;;;;;;32.25;29.75;;;;;;;;5031962;28;8766;-67
2022/03/06 09:24:10;;;;;;;;;41.00;33.00;;;;;;;;5032149;28;9290;-67
2022/03/06 09:26:37;;;;;;;;;32.25;29.75;;;;;;;;5016528;28;8801;-67
2022/03/06 09:29:05;;;;;;;;;35.50;31.50;;;;;;;;5017092;28;8866;-67
2022/03/06 09:31:32;;;;;;;;;34.25;30.75;;;;;;;;5016692;28;8877;-67
2022/03/06 09:33:58;;;;;;;;;34.00;31.50;;;;;;;;5016052;28;8743;-67
2022/03/06 09:36:25;;;;;;;;;39.25;31.50;;;;;;;;5015502;28;8758;-67
2022/03/06 09:38:52;;;;;;;;;32.25;30.25;;;;;;;;5017319;28;8759;-67
2022/03/06 09:41:20;;;;;;;;;29.75;28.25;;;;;;;;5016445;28;8751;-66
2022/03/06 09:43:47;;;;;;;;;38.25;33.25;;;;;;;;5031771;28;8779;-67
2022/03/06 09:46:14;;;;;;;;;31.75;29.75;;;;;;;;5016004;28;8759;-67
2022/03/06 09:48:41;;;;;;;;;34.75;28.50;;;;;;;;5016652;28;8767;-68
2022/03/06 09:51:07;;;;;;;;;33.25;31.00;;;;;;;;5015733;28;8788;-67
2022/03/06 09:53:34;;;;;;;;;35.50;31.50;;;;;;;;5016753;28;8767;-67
2022/03/06 09:56:01;;;;;;;;;38.25;33.00;;;;;;;;5016997;28;8775;-67
2022/03/06 09:58:27;;;;;;;;;38.00;32.75;;;;;;;;5032069;28;8747;-66
2022/03/06 10:00:54;;;;;;;;;33.50;30.50;;;;;;;;5033218;28;8766;-67
2022/03/06 10:03:21;;;;;;;;;35.75;31.50;;;;;;;;5015504;28;9428;-67
2022/03/06 10:05:50;;;;;;;;;35.00;31.00;;;;;;;;5017291;28;8763;-67
2022/03/06 10:08:29;;;;;;;;;28.50;27.00;;;;;;;;5017035;28;8817;-68
2022/03/06 10:10:56;;;;;;;;;28.75;28.00;;;;;;;;5016777;28;8755;-67
2022/03/06 10:13:23;;;;;;;;;31.75;29.25;;;;;;;;5016068;28;8750;-67
2022/03/06 10:16:19;;;;;;;;;36.50;31.50;;;;;;;;5015357;28;8727;-67
2022/03/06 10:18:47;;;;;;;;;29.25;28.50;;;;;;;;5008406;28;8793;-67
2022/03/06 10:21:15;;;;;;;;;42.00;34.00;;;;;;;;5017541;28;8990;-67
2022/03/06 10:23:41;;;;;;;;;30.50;29.00;;;;;;;;5017338;28;9493;-67
2022/03/06 10:26:09;;;;;;;;;33.25;28.00;;;;;;;;5017214;28;8779;-67
2022/03/06 10:28:52;;;;;;;;;33.00;29.00;;;;;;;;5016603;28;8825;-68
2022/03/06 10:31:19;;;;;;;;;41.50;34.00;;;;;;;;5017418;28;8755;-67
2022/03/06 10:33:55;;;;;;;;;35.50;31.50;;;;;;;;5016963;28;8763;-67
2022/03/06 10:36:31;;;;;;;;;32.25;29.75;;;;;;;;5016946;28;8743;-67
2022/03/06 10:38:58;;;;;;;;;34.50;31.00;;;;;;;;5017191;28;8770;-67
2022/03/06 10:41:26;;;;;;;;;40.00;33.50;;;;;;;;5016791;28;8814;-67
2022/03/06 10:43:52;;;;;;;;;27.50;22.25;;;;;;;;5015427;28;9479;-67
2022/03/06 10:46:21;;;;;;;;;40.75;34.50;;;;;;;;5017333;28;8853;-67
2022/03/06 10:48:55;;;;;;;;;37.00;31.25;;;;;;;;5035523;28;8793;-68
2022/03/06 10:51:22;;;;;;;;;43.25;32.75;;;;;;;;5035161;28;9144;-68
2022/03/06 10:53:52;;;;;;;;;38.50;30.75;;;;;;;;5019941;28;8762;-67
2022/03/06 10:56:20;;;;;;;;;43.75;34.00;;;;;;;;5030299;28;8983;-67
2022/03/06 10:58:47;;;;;;;;;37.00;32.00;;;;;;;;5000717;28;8761;-67
2022/03/06 11:01:14;;;;;;;;;25.50;19.75;;;;;;;;5000507;28;8771;-68
2022/03/06 11:03:41;;;;;;;;;43.00;36.75;;;;;;;;4984047;28;8778;-67
2022/03/06 11:06:08;;;;;;;;;35.75;30.75;;;;;;;;4999886;28;8770;-68
2022/03/06 11:08:35;;;;;;;;;33.00;30.25;;;;;;;;5000300;28;8805;-67
2022/03/06 11:11:02;;;;;;;;;44.00;35.50;;;;;;;;5003141;28;8773;-67
2022/03/06 11:13:29;;;;;;;;;35.25;29.25;;;;;;;;5020314;28;8731;-67
2022/03/06 11:15:56;;;;;;;;;44.00;35.00;;;;;;;;5020554;28;9444;-68
2022/03/06 11:18:24;;;;;;;;;34.50;31.50;;;;;;;;5011821;28;8766;-67
2022/03/06 11:20:50;;;;;;;;;40.75;31.00;;;;;;;;5019749;28;8747;-67
2022/03/06 11:23:36;;;;;;;;;35.50;30.75;;;;;;;;5018318;28;9326;-67
2022/03/06 11:26:05;;;;;;;;;41.75;34.50;;;;;;;;5019411;28;8802;-68
2022/03/06 11:28:44;;;;;;;;;40.75;35.00;;;;;;;;5017487;28;8767;-67
2022/03/06 11:31:11;;;;;;;;;19.25;15.25;;;;;;;;5020202;28;8757;-68
2022/03/06 11:33:44;;;;;;;;;40.50;34.25;;;;;;;;5018953;28;8870;-68
2022/03/06 11:36:19;;;;;;;;;40.50;33.50;;;;;;;;5019374;28;8774;-68
2022/03/06 11:38:48;;;;;;;;;44.00;35.75;;;;;;;;5019175;28;8782;-67
2022/03/06 11:41:15;;;;;;;;;39.50;32.25;;;;;;;;5015686;28;8789;-68
2022/03/06 11:43:47;;;;;;;;;47.50;36.00;;;;;;;;5017546;28;8844;-68
2022/03/06 11:46:16;;;;;;;;;45.00;37.50;;;;;;;;4999810;28;8762;-68
2022/03/06 11:48:45;;;;;;;;;44.75;35.25;;;;;;;;4999197;28;8765;-68
2022/03/06 11:51:22;;;;;;;;;43.50;35.25;;;;;;;;4999187;28;8758;-67
2022/03/06 11:54:01;;;;;;;;;44.75;35.75;;;;;;;;4999026;28;8773;-67
2022/03/06 11:56:34;;;;;;;;;47.25;39.50;;;;;;;;5004802;28;8752;-67
2022/03/06 11:59:11;;;;;;;;;45.50;36.50;;;;;;;;5017879;28;8869;-68
2022/03/06 12:01:45;;;;;;;;;47.25;37.00;;;;;;;;5016998;28;8751;-68
2022/03/06 12:04:13;;;;;;;;;49.25;38.25;;;;;;;;5019089;28;8762;-67
2022/03/06 12:06:43;;;;;;;;;45.50;38.00;;;;;;;;5018589;28;8857;-68
2022/03/06 12:09:12;;;;;;;;;45.25;37.25;;;;;;;;5010240;28;8940;-68
2022/03/06 12:11:40;;;;;;;;;45.00;36.25;;;;;;;;5018234;28;9049;-67
2022/03/06 12:14:13;;;;;;;;;46.25;37.75;;;;;;;;5018447;28;8775;-67
2022/03/06 12:16:58;;;;;;;;;50.00;40.50;;;;;;;;5018174;28;9417;-67
2022/03/06 12:19:24;;;;;;;;;50.00;40.50;;;;;;;;5018467;28;8758;-67
2022/03/06 12:21:51;;;;;;;;;53.00;41.25;;;;;;;;5033370;28;8766;-67
2022/03/06 12:24:28;;;;;;;;;53.25;40.75;;;;;;;;5033167;28;8808;-69
2022/03/06 12:26:55;;;;;;;;;62.40;49.00;;;;;;;;5018016;28;8864;-67
2022/03/06 12:29:40;;;;;;;;;61.20;47.60;;;;;;;;5016178;28;8771;-67
2022/03/06 12:32:25;;;;;;;;;59.00;45.75;;;;;;;;5017732;28;8828;-68
2022/03/06 12:34:58;;;;;;;;;61.20;46.40;;;;;;;;5018435;28;8766;-67
2022/03/06 12:37:25;;;;;;;;;55.80;41.80;;;;;;;;5007159;28;8771;-66
2022/03/06 12:39:52;;;;;;;;;57.80;45.00;;;;;;;;5018528;28;8751;-67
2022/03/06 12:42:25;;;;;;;;;58.00;45.20;;;;;;;;5017442;28;8817;-67
2022/03/06 12:44:55;;;;;;;;;53.25;42.50;;;;;;;;5016262;28;8773;-68
2022/03/06 12:47:22;;;;;;;;;49.25;39.50;;;;;;;;5017033;28;8802;-67
2022/03/06 12:49:52;;;;;;;;;52.50;40.25;;;;;;;;5017487;28;8767;-67
2022/03/06 12:52:19;;;;;;;;;50.25;39.25;;;;;;;;5016681;28;8755;-67
2022/03/06 12:54:47;;;;;;;;;51.75;42.25;;;;;;;;5032508;28;8983;-68
2022/03/06 12:57:13;;;;;;;;;50.00;40.00;;;;;;;;5017425;28;8775;-68
2022/03/06 12:59:41;;;;;;;;;54.25;42.00;;;;;;;;5017372;28;8766;-68
2022/03/06 13:02:08;;;;;;;;;46.00;36.75;;;;;;;;5017628;28;8769;-68
2022/03/06 13:04:35;;;;;;;;;46.25;38.50;;;;;;;;5017013;28;8898;-67
2022/03/06 13:07:03;;;;;;;;;50.25;40.50;;;;;;;;5017964;28;8783;-68
2022/03/06 13:09:34;;;;;;;;;43.50;36.50;;;;;;;;5016896;28;8778;-67
2022/03/06 13:12:01;;;;;;;;;52.00;41.75;;;;;;;;5017073;28;8865;-68
2022/03/06 13:14:29;;;;;;;;;51.50;42.50;;;;;;;;5017308;28;8789;-67
2022/03/06 13:16:59;;;;;;;;;59.00;45.80;;;;;;;;5015842;28;8747;-68
2022/03/06 13:19:25;;;;;;;;;52.25;42.50;;;;;;;;5017091;28;8824;-67
2022/03/06 13:21:52;;;;;;;;;59.00;46.20;;;;;;;;5016410;28;8751;-67
2022/03/06 13:24:19;;;;;;;;;61.60;49.00;;;;;;;;5015472;28;9412;-67
2022/03/06 13:26:46;;;;;;;;;64.40;49.00;;;;;;;;5017131;28;8790;-68
2022/03/06 13:29:14;;;;;;;;;62.20;49.20;;;;;;;;5017038;28;8775;-67
2022/03/06 13:31:42;;;;;;;;;66.40;51.60;;;;;;;;5016764;28;8752;-67
2022/03/06 13:34:09;;;;;;;;;61.20;49.80;;;;;;;;5017360;28;8743;-67
2022/03/06 13:36:39;;;;;;;;;59.80;48.40;;;;;;;;5032039;28;8894;-67
2022/03/06 13:39:09;;;;;;;;;66.80;51.00;;;;;;;;5017176;28;9369;-67
2022/03/06 13:41:36;;;;;;;;;64.80;50.00;;;;;;;;5016733;28;8755;-67
2022/03/06 13:44:06;;;;;;;;;62.60;49.00;;;;;;;;5032148;28;8767;-68
2022/03/06 13:46:39;;;;;;;;;61.80;49.60;;;;;;;;5017003;28;8747;-67
2022/03/06 13:49:10;;;;;;;;;65.80;51.80;;;;;;;;5017906;28;8775;-67
2022/03/06 13:51:36;;;;;;;;;69.80;54.20;;;;;;;;5016762;28;8782;-67
2022/03/06 13:54:05;;;;;;;;;65.00;50.40;;;;;;;;5031856;28;8755;-67
2022/03/06 13:56:36;;;;;;;;;66.20;53.20;;;;;;;;5025056;28;8789;-68
2022/03/06 13:59:03;;;;;;;;;66.60;53.00;;;;;;;;4997238;28;9002;-68
2022/03/06 14:01:30;;;;;;;;;63.20;48.40;;;;;;;;4997079;28;8750;-67
2022/03/06 14:03:58;;;;;;;;;69.80;52.80;;;;;;;;4997913;28;8785;-68
2022/03/06 14:06:32;;;;;;;;;70.40;54.60;;;;;;;;4995970;28;8882;-67
2022/03/06 14:08:59;;;;;;;;;66.80;50.00;;;;;;;;4995950;28;8766;-68
2022/03/06 14:11:27;;;;;;;;;66.40;55.20;;;;;;;;5000791;28;9496;-67
2022/03/06 14:13:54;;;;;;;;;72.20;60.40;;;;;;;;5031477;28;8751;-68
2022/03/06 14:16:24;;;;;;;;;69.40;56.20;;;;;;;;5016533;28;8767;-67
2022/03/06 14:18:51;;;;;;;;;66.00;50.80;;;;;;;;5016927;28;8743;-68
2022/03/06 14:21:21;;;;;;;;;69.00;55.60;;;;;;;;5017829;28;8836;-68
2022/03/06 14:23:48;;;;;;;;;70.60;53.00;;;;;;;;5020222;28;8743;-68
2022/03/06 14:26:18;;;;;;;;;70.00;54.60;;;;;;;;5020339;28;8861;-69
2022/03/06 14:28:54;;;;;;;;;70.40;53.40;;;;;;;;5020757;28;8900;-68
2022/03/06 14:31:21;;;;;;;;;68.60;54.00;;;;;;;;5020756;28;8779;-68